createdAt,value
2018-03-30T06:01:27.846Z,82.90
2018-03-30T06:03:56.193Z,81.60
2018-03-30T06:06:24.820Z,80.90
2018-03-30T06:08:52.962Z,81.30
2018-03-30T06:11:20.518Z,80.70
2018-03-30T06:13:48.093Z,81.40
2018-03-30T06:16:15.660Z,79.50
2018-03-30T06:18:43.246Z,79.90
2018-03-30T06:21:10.821Z,80.30
2018-03-30T06:23:39.149Z,78.30
2018-03-30T06:26:07.360Z,78.20
2018-03-30T06:28:35.704Z,76.10
2018-03-30T06:31:03.282Z,75.50
2018-03-30T06:33:30.843Z,74.70
2018-03-30T06:35:58.442Z,74.50
2018-03-30T06:38:26.026Z,72.40
2018-03-30T06:40:53.613Z,71.20
2018-03-30T06:43:21.169Z,71.40
2018-03-30T06:45:48.760Z,71.20
2018-03-30T06:48:16.327Z,71.00
2018-03-30T06:50:44.641Z,70.00
2018-03-30T06:53:12.213Z,70.00
2018-03-30T06:55:39.759Z,71.30
2018-03-30T06:58:08.209Z,70.10
2018-03-30T07:00:35.741Z,70.00
2018-03-30T07:03:04.016Z,69.70
2018-03-30T07:05:31.637Z,70.70
2018-03-30T07:08:00.112Z,71.10
2018-03-30T07:10:27.679Z,71.20
2018-03-30T07:12:55.308Z,71.50
2018-03-30T07:15:23.646Z,71.30
2018-03-30T07:17:51.225Z,71.30
2018-03-30T07:20:18.802Z,71.90
2018-03-30T07:22:47.115Z,69.80
2018-03-30T07:25:17.006Z,69.80
2018-03-30T07:27:45.677Z,69.50
2018-03-30T07:30:14.093Z,70.00
2018-03-30T07:32:43.321Z,69.90
2018-03-30T07:35:12.816Z,69.50
2018-03-30T07:37:40.429Z,69.70
2018-03-30T07:40:08.852Z,68.80
2018-03-30T07:42:38.304Z,68.80
2018-03-30T07:45:06.147Z,68.90
2018-03-30T07:47:34.630Z,68.00
2018-03-30T07:50:02.332Z,68.00
2018-03-30T07:52:30.938Z,66.80
2018-03-30T07:54:58.598Z,66.80
2018-03-30T07:57:26.187Z,67.30
2018-03-30T07:59:57.388Z,66.50
2018-03-30T08:02:27.133Z,66.30
2018-03-30T08:04:57.507Z,66.40
2018-03-30T08:07:25.968Z,65.70
2018-03-30T08:09:53.889Z,64.70
2018-03-30T08:12:26.747Z,64.00
2018-03-30T08:14:57.715Z,63.30
2018-03-30T08:17:25.357Z,62.90
2018-03-30T08:19:53.765Z,62.30
2018-03-30T08:22:21.964Z,62.60
2018-03-30T08:24:50.403Z,61.60
2018-03-30T08:27:18.017Z,61.90
2018-03-30T08:29:51.657Z,60.90
2018-03-30T08:32:20.138Z,60.50
2018-03-30T08:34:47.896Z,60.90
2018-03-30T08:37:16.371Z,61.60
2018-03-30T08:39:45.894Z,60.50
2018-03-30T08:42:15.050Z,60.50
2018-03-30T08:44:46.769Z,60.00
2018-03-30T08:47:14.342Z,58.60
2018-03-30T08:49:42.945Z,59.20
2018-03-30T08:52:12.025Z,58.50
2018-03-30T08:54:41.180Z,59.10
2018-03-30T08:57:09.228Z,57.60
2018-03-30T08:59:36.808Z,56.10
2018-03-30T09:02:08.166Z,55.90
2018-03-30T09:04:36.038Z,55.90
2018-03-30T09:07:04.593Z,55.50
2018-03-30T09:09:32.944Z,54.90
2018-03-30T09:12:00.519Z,54.90
2018-03-30T09:14:29.082Z,54.30
2018-03-30T09:16:56.654Z,54.60
2018-03-30T09:19:25.725Z,55.10
2018-03-30T09:21:53.407Z,54.90
2018-03-30T09:24:21.615Z,54.20
2018-03-30T09:26:50.334Z,53.80
2018-03-30T09:29:17.947Z,55.00
2018-03-30T09:31:45.541Z,53.00
2018-03-30T09:34:13.723Z,53.30
2018-03-30T09:36:42.089Z,52.30
2018-03-30T09:39:11.864Z,53.10
2018-03-30T09:41:40.068Z,52.80
2018-03-30T09:44:09.713Z,52.90
2018-03-30T09:46:37.279Z,52.60
2018-03-30T09:49:04.889Z,52.10
2018-03-30T09:51:33.682Z,51.10
2018-03-30T09:54:01.263Z,51.10
2018-03-30T09:56:31.231Z,51.60
2018-03-30T09:58:59.567Z,51.40
2018-03-30T10:01:27.877Z,51.40
2018-03-30T10:03:55.488Z,52.10
2018-03-30T10:06:25.316Z,51.80
2018-03-30T10:08:55.193Z,49.90
2018-03-30T10:11:23.192Z,51.00
2018-03-30T10:13:50.813Z,50.50
2018-03-30T10:16:19.304Z,48.80
2018-03-30T10:18:47.614Z,49.10
2018-03-30T10:21:16.220Z,48.50
2018-03-30T10:23:43.775Z,48.20
2018-03-30T10:26:11.336Z,46.70
2018-03-30T10:28:39.590Z,46.70
2018-03-30T10:31:08.785Z,46.80
2018-03-30T10:33:36.466Z,46.20
2018-03-30T10:36:05.146Z,45.40
2018-03-30T10:38:34.414Z,44.90
2018-03-30T10:41:02.132Z,43.90
2018-03-30T10:43:31.683Z,42.00
2018-03-30T10:45:59.289Z,42.50
2018-03-30T10:48:28.189Z,41.00
2018-03-30T10:50:55.851Z,41.10
2018-03-30T10:53:24.258Z,41.20
2018-03-30T10:55:52.665Z,39.40
2018-03-30T10:58:20.210Z,39.30
2018-03-30T11:00:47.799Z,38.30
2018-03-30T11:03:15.561Z,38.60
2018-03-30T11:05:43.201Z,37.50
2018-03-30T11:08:11.616Z,36.60
2018-03-30T11:10:42.472Z,36.40
2018-03-30T11:13:10.045Z,36.70
2018-03-30T11:15:38.328Z,35.90
